Terminal Aerodrome Forecast
Issued by NWS

Home | Current Version | Previous Version | Text Only | Print | Product List | Glossary On
Versions: 1 2 3 4 5 6 7 8 9 10 11 12 13 14 15 16
000
FTUS42 KMLB 270500
TAFISM
TAF
KISM 270520Z 2706/2806 30010KT P6SM SKC
     FM271600 29017G27KT P6SM SKC
     FM280200 30009KT P6SM SKC
      AMD NOT SKED TIL 271200=

USA.gov is the U.S. government's official web portal to all federal, state and local government web resources and services.